Time;durP1;ratioP1;P1;durP2;ratioP2;P2;SDS_P1;SDS_P2;PMS_P1;PMS_P2;Temp;Humidity;BMP_temperature;BMP_pressure;BME280_temperature;BME280_humidity;BME280_pressure;Samples;Min_cycle;Max_cycle;Signal;HPM_P1;HPM_P2
2021/08/08 00:01:09;;;;;;;9.87;5.43;;;;;;;17.07;100.00;99853.31;3598778;39;20504;-50
2021/08/08 00:03:37;;;;;;;8.17;5.00;;;;;;;16.91;100.00;99855.00;3620743;39;20680;-43
2021/08/08 00:06:05;;;;;;;9.27;5.10;;;;;;;16.90;100.00;99868.00;3597769;39;20507;-43
2021/08/08 00:08:32;;;;;;;15.00;7.93;;;;;;;17.18;100.00;99860.28;3620483;39;20488;-46
2021/08/08 00:11:02;;;;;;;9.63;5.17;;;;;;;17.01;100.00;99869.78;3592716;39;20488;-43
2021/08/08 00:13:36;;;;;;;16.47;5.90;;;;;;;16.95;100.00;99881.91;3618312;39;20505;-44
2021/08/08 00:16:05;;;;;;;7.00;4.70;;;;;;;16.83;100.00;99882.78;3620004;39;20497;-43
2021/08/08 00:18:32;;;;;;;21.27;8.70;;;;;;;16.82;100.00;99870.63;3620549;39;20591;-43
2021/08/08 00:21:00;;;;;;;8.33;5.00;;;;;;;16.81;100.00;99885.38;3620042;39;20488;-47
2021/08/08 00:23:28;;;;;;;21.87;9.37;;;;;;;16.69;100.00;99882.75;3593607;39;20717;-45
2021/08/08 00:25:56;;;;;;;7.87;4.93;;;;;;;16.50;100.00;99887.03;3601307;39;20500;-45
2021/08/08 00:28:25;;;;;;;11.23;5.13;;;;;;;16.86;100.00;99877.56;3619046;39;20494;-43
2021/08/08 00:30:52;;;;;;;15.70;7.17;;;;;;;16.71;100.00;99868.84;3600661;39;20500;-43
2021/08/08 00:33:20;;;;;;;9.67;5.47;;;;;;;16.79;100.00;99860.19;3618175;39;20558;-45
2021/08/08 00:35:48;;;;;;;7.10;5.10;;;;;;;16.82;100.00;99839.38;3611655;39;20547;-44
2021/08/08 00:38:15;;;;;;;13.47;8.70;;;;;;;16.51;100.00;99841.91;3619097;39;20733;-45
2021/08/08 00:40:43;;;;;;;7.67;4.93;;;;;;;16.63;100.00;99841.06;3618946;39;20567;-44
2021/08/08 00:43:11;;;;;;;14.47;7.63;;;;;;;16.81;100.00;99827.22;3619899;39;20507;-47
2021/08/08 00:45:40;;;;;;;11.67;4.43;;;;;;;16.58;100.00;99851.47;3612308;39;20526;-45
2021/08/08 00:48:08;;;;;;;8.47;4.60;;;;;;;16.47;100.00;99859.25;3618687;39;20500;-44
2021/08/08 00:50:36;;;;;;;9.03;5.20;;;;;;;16.47;100.00;99874.88;3610655;39;20512;-46
2021/08/08 00:53:06;;;;;;;7.53;4.23;;;;;;;16.38;100.00;99880.91;3618870;39;20587;-45
2021/08/08 00:55:34;;;;;;;7.00;4.70;;;;;;;16.37;100.00;99884.38;3616102;39;20527;-45
2021/08/08 00:58:01;;;;;;;5.90;4.10;;;;;;;16.23;100.00;99892.13;3619374;39;20534;-45
2021/08/08 01:00:29;;;;;;;14.40;5.70;;;;;;;16.25;100.00;99908.59;3617029;39;20519;-47
2021/08/08 01:03:00;;;;;;;14.70;5.03;;;;;;;16.32;100.00;99889.56;3619188;39;20704;-45
2021/08/08 01:05:31;;;;;;;9.50;5.20;;;;;;;16.60;100.00;99892.28;3615244;39;20506;-48
2021/08/08 01:08:02;;;;;;;7.30;5.60;;;;;;;16.58;100.00;99890.53;3619281;39;20583;-44
2021/08/08 01:10:30;;;;;;;11.57;5.40;;;;;;;16.51;100.00;99891.38;3600112;39;20484;-43
2021/08/08 01:12:59;;;;;;;10.80;6.17;;;;;;;16.75;100.00;99882.75;3600540;39;20518;-45
2021/08/08 01:15:26;;;;;;;12.80;6.60;;;;;;;16.63;100.00;99890.53;3618177;39;20494;-47
2021/08/08 01:17:54;;;;;;;11.40;5.30;;;;;;;16.53;100.00;99892.25;3617222;39;20543;-46
2021/08/08 01:20:25;;;;;;;10.33;5.60;;;;;;;16.35;100.00;99886.09;3619445;39;20520;-46
2021/08/08 01:22:55;;;;;;;7.67;5.13;;;;;;;16.47;100.00;99883.53;3620078;39;20443;-44
2021/08/08 01:25:25;;;;;;;7.10;5.07;;;;;;;16.23;100.00;99879.13;3618981;39;20521;-45
2021/08/08 01:27:56;;;;;;;10.87;5.40;;;;;;;16.04;100.00;99881.63;3622088;39;20527;-44
2021/08/08 01:30:25;;;;;;;11.93;5.40;;;;;;;16.08;100.00;99890.31;3619448;39;20832;-44
2021/08/08 01:32:52;;;;;;;9.87;5.67;;;;;;;16.21;100.00;99893.88;3621551;39;20499;-45
2021/08/08 01:35:27;;;;;;;11.07;5.70;;;;;;;16.10;100.00;99895.53;3612204;39;20503;-48
2021/08/08 01:37:55;;;;;;;15.50;6.63;;;;;;;16.29;100.00;99889.56;3621821;39;20511;-45
2021/08/08 01:40:27;;;;;;;8.40;5.70;;;;;;;16.06;100.00;99899.84;3595304;39;20498;-46
2021/08/08 01:42:56;;;;;;;8.57;4.87;;;;;;;16.25;100.00;99898.19;3621324;39;20514;-45
2021/08/08 01:45:24;;;;;;;8.60;5.80;;;;;;;16.13;100.00;99886.00;3619297;39;20502;-43
2021/08/08 01:47:56;;;;;;;9.67;5.70;;;;;;;16.11;100.00;99892.06;3621959;39;20522;-47
2021/08/08 01:50:31;;;;;;;10.37;5.50;;;;;;;16.20;100.00;99894.69;3620912;39;20846;-43
2021/08/08 01:52:59;;;;;;;8.83;5.83;;;;;;;15.95;100.00;99894.59;3621493;39;20639;-47
2021/08/08 01:55:29;;;;;;;11.17;5.97;;;;;;;15.82;100.00;99895.31;3622035;39;20503;-46
2021/08/08 01:57:58;;;;;;;17.50;6.50;;;;;;;15.94;100.00;99898.03;3618959;39;20532;-48
2021/08/08 02:00:27;;;;;;;9.90;5.93;;;;;;;15.85;100.00;99893.59;3612759;39;20498;-43
2021/08/08 02:02:56;;;;;;;11.83;5.90;;;;;;;15.85;100.00;99900.56;3594555;39;20517;-43
2021/08/08 02:05:25;;;;;;;9.20;6.53;;;;;;;15.83;100.00;99904.88;3594651;39;20500;-45
2021/08/08 02:07:53;;;;;;;8.20;6.27;;;;;;;15.82;100.00;99905.72;3621382;39;20534;-44
2021/08/08 02:10:24;;;;;;;9.00;5.37;;;;;;;15.71;100.00;99911.75;3620192;39;20847;-44
2021/08/08 02:12:52;;;;;;;11.40;6.47;;;;;;;15.85;100.00;99909.22;3621890;39;20506;-44
2021/08/08 02:15:20;;;;;;;9.40;5.53;;;;;;;15.82;100.00;99905.72;3619738;39;20838;-47
2021/08/08 02:17:48;;;;;;;9.37;6.90;;;;;;;15.86;100.00;99908.38;3620618;39;20492;-44
2021/08/08 02:20:17;;;;;;;13.60;6.83;;;;;;;16.01;100.00;99911.97;3619419;39;20497;-44
2021/08/08 02:22:48;;;;;;;8.63;6.03;;;;;;;15.98;100.00;99906.72;3608842;39;20481;-43
2021/08/08 02:25:15;;;;;;;9.57;6.00;;;;;;;16.31;100.00;99903.44;3611734;39;20510;-47
2021/08/08 02:27:43;;;;;;;9.47;6.07;;;;;;;16.29;100.00;99897.34;3610800;39;20708;-46
2021/08/08 02:30:12;;;;;;;10.37;6.37;;;;;;;16.25;100.00;99894.75;3611803;39;20507;-48
2021/08/08 02:32:40;;;;;;;8.63;6.47;;;;;;;16.23;100.00;99892.13;3610830;39;20471;-45
2021/08/08 02:35:08;;;;;;;8.60;6.03;;;;;;;16.29;100.00;99896.47;3610946;39;20493;-44
2021/08/08 02:37:36;;;;;;;8.37;5.70;;;;;;;15.92;100.00;99891.97;3603142;39;20493;-47
2021/08/08 02:40:05;;;;;;;13.40;6.67;;;;;;;15.95;100.00;99886.78;3611404;39;20517;-43
2021/08/08 02:42:32;;;;;;;9.73;6.40;;;;;;;15.94;100.00;99890.22;3596634;39;20484;-45
2021/08/08 02:45:00;;;;;;;10.47;6.57;;;;;;;15.88;100.00;99887.56;3611556;39;20828;-47
2021/08/08 02:47:30;;;;;;;11.70;6.00;;;;;;;15.71;100.00;99882.25;3610454;39;20482;-46
2021/08/08 02:49:57;;;;;;;9.00;6.00;;;;;;;15.71;100.00;99888.34;3611952;39;20512;-43
2021/08/08 02:52:26;;;;;;;7.60;5.97;;;;;;;15.88;100.00;99897.97;3612733;39;20715;-44
2021/08/08 02:54:53;;;;;;;19.30;6.60;;;;;;;15.86;100.00;99891.91;3610472;39;20492;-42
2021/08/08 02:57:21;;;;;;;9.07;5.70;;;;;;;15.71;100.00;99892.66;3592492;39;20488;-45
2021/08/08 02:59:48;;;;;;;9.63;5.70;;;;;;;15.65;100.00;99891.75;3610143;39;20521;-47
2021/08/08 03:02:16;;;;;;;13.37;6.00;;;;;;;15.48;100.00;99898.56;3603115;39;20475;-43
2021/08/08 03:04:45;;;;;;;7.27;5.17;;;;;;;15.46;100.00;99902.88;3610252;39;20606;-47
2021/08/08 03:07:13;;;;;;;8.80;5.10;;;;;;;15.32;100.00;99902.75;3608917;39;20479;-44
2021/08/08 03:09:40;;;;;;;12.00;5.77;;;;;;;15.35;100.00;99902.78;3610935;39;20515;-44
2021/08/08 03:12:08;;;;;;;6.20;4.57;;;;;;;15.34;100.00;99901.06;3587182;39;20481;-48
2021/08/08 03:14:36;;;;;;;10.00;5.50;;;;;;;15.31;100.00;99904.50;3608865;39;20554;-43
2021/08/08 03:17:04;;;;;;;9.53;5.70;;;;;;;15.30;100.00;99904.47;3608150;39;20472;-44
2021/08/08 03:19:32;;;;;;;6.70;4.67;;;;;;;15.24;100.00;99907.91;3610074;39;20560;-46
2021/08/08 03:22:00;;;;;;;9.03;3.90;;;;;;;15.06;100.00;99906.88;3604193;39;20857;-44
2021/08/08 03:24:28;;;;;;;9.63;4.53;;;;;;;15.17;100.00;99912.16;3610996;39;20527;-48
2021/08/08 03:26:56;;;;;;;6.40;4.33;;;;;;;15.28;100.00;99906.19;3609258;39;20473;-46
2021/08/08 03:29:23;;;;;;;9.90;5.37;;;;;;;15.15;100.00;99913.00;3611164;39;20509;-45
2021/08/08 03:31:51;;;;;;;6.70;4.00;;;;;;;15.21;100.00;99913.94;3602528;39;20472;-43
2021/08/08 03:34:19;;;;;;;15.10;4.37;;;;;;;15.27;100.00;99912.25;3584347;39;20489;-46
2021/08/08 03:36:47;;;;;;;7.67;4.70;;;;;;;15.20;100.00;99916.50;3610168;39;20473;-45
2021/08/08 03:39:17;;;;;;;10.03;4.73;;;;;;;15.18;100.00;99916.50;3611155;39;20516;-43
2021/08/08 03:41:45;;;;;;;6.33;3.90;;;;;;;15.17;100.00;99912.16;3612202;39;20511;-46
2021/08/08 03:44:12;;;;;;;10.50;4.63;;;;;;;15.23;100.00;99922.59;3584464;39;20533;-46
2021/08/08 03:46:40;;;;;;;7.13;4.63;;;;;;;15.17;100.00;99917.34;3609425;39;20455;-45
2021/08/08 03:49:09;;;;;;;5.20;3.60;;;;;;;15.12;100.00;99916.44;3592585;39;20502;-47
2021/08/08 03:51:37;;;;;;;9.47;4.50;;;;;;;15.20;100.00;99925.19;3577923;39;20532;-47
2021/08/08 03:54:05;;;;;;;12.00;4.60;;;;;;;15.15;100.00;99924.28;3610227;39;20478;-47
2021/08/08 03:56:34;;;;;;;6.40;3.90;;;;;;;15.15;100.00;99924.28;3609444;39;20487;-45
2021/08/08 03:59:02;;;;;;;5.70;3.80;;;;;;;15.10;100.00;99925.94;3611006;39;20514;-47
2021/08/08 04:01:30;;;;;;;6.80;4.30;;;;;;;15.02;100.00;99933.66;3591692;39;20504;-45
2021/08/08 04:03:58;;;;;;;6.17;3.93;;;;;;;14.93;100.00;99930.97;3611046;39;20744;-46
2021/08/08 04:06:25;;;;;;;6.10;4.00;;;;;;;15.11;100.00;99928.56;3607698;39;20886;-45
2021/08/08 04:08:53;;;;;;;8.30;3.90;;;;;;;15.07;100.00;99926.78;3610982;39;20521;-44
2021/08/08 04:11:20;;;;;;;10.23;4.33;;;;;;;15.05;100.00;99938.91;3611363;39;20710;-44
2021/08/08 04:13:49;;;;;;;8.57;4.00;;;;;;;15.03;100.00;99942.34;3609808;39;20505;-44
2021/08/08 04:16:17;;;;;;;5.60;3.73;;;;;;;15.09;100.00;99950.19;3609998;39;20481;-43
2021/08/08 04:18:44;;;;;;;8.73;4.07;;;;;;;15.13;100.00;99944.19;3610714;39;20495;-47
2021/08/08 04:21:12;;;;;;;7.17;3.60;;;;;;;15.23;100.00;99948.59;3604527;39;20480;-46
2021/08/08 04:23:40;;;;;;;3.73;3.33;;;;;;;15.34;100.00;99945.22;3610639;39;20538;-47
2021/08/08 04:26:08;;;;;;;6.67;4.90;;;;;;;15.25;100.00;99940.81;3595797;39;20479;-47
2021/08/08 04:28:39;;;;;;;7.80;3.87;;;;;;;15.21;100.00;99950.31;3574715;40;20505;-44
2021/08/08 04:31:08;;;;;;;8.03;4.80;;;;;;;15.33;100.00;99943.50;3591070;40;20618;-46
2021/08/08 04:33:37;;;;;;;8.80;4.20;;;;;;;15.32;100.00;99950.41;3588991;40;20502;-47
2021/08/08 04:36:05;;;;;;;4.77;4.10;;;;;;;15.39;100.00;99943.56;3589921;40;20514;-45
2021/08/08 04:38:33;;;;;;;10.50;4.93;;;;;;;15.41;100.00;99951.34;3600138;39;20512;-45
2021/08/08 04:41:01;;;;;;;10.50;4.00;;;;;;;15.37;100.00;99942.66;3591211;39;20521;-47
2021/08/08 04:43:29;;;;;;;7.03;3.50;;;;;;;15.52;100.00;99945.41;3610699;39;20514;-45
2021/08/08 04:45:57;;;;;;;6.17;4.10;;;;;;;15.43;100.00;99950.50;3610010;39;20497;-49
2021/08/08 04:48:26;;;;;;;8.90;3.93;;;;;;;15.33;100.00;99951.28;3610359;39;20495;-45
2021/08/08 04:50:54;;;;;;;5.47;3.47;;;;;;;15.42;100.00;99953.97;3591826;39;20474;-46
2021/08/08 04:53:22;;;;;;;8.20;4.00;;;;;;;15.37;100.00;99966.03;3610586;39;20488;-44
2021/08/08 04:55:52;;;;;;;6.23;3.20;;;;;;;15.43;100.00;99955.69;3604450;39;20817;-43
2021/08/08 04:58:19;;;;;;;6.23;3.90;;;;;;;15.44;100.00;99957.44;3609925;39;20513;-45
2021/08/08 05:00:47;;;;;;;7.33;3.67;;;;;;;15.40;100.00;99963.47;3609499;39;20536;-47
2021/08/08 05:03:15;;;;;;;9.10;4.10;;;;;;;15.51;100.00;99953.19;3612109;39;20514;-45
2021/08/08 05:05:43;;;;;;;6.93;3.47;;;;;;;15.51;100.00;99950.56;3584228;39;20535;-45
2021/08/08 05:08:11;;;;;;;6.70;3.33;;;;;;;15.51;100.00;99943.66;3611954;39;20513;-45
2021/08/08 05:10:39;;;;;;;10.83;3.30;;;;;;;15.50;100.00;99941.03;3602627;39;20842;-43
2021/08/08 05:13:07;;;;;;;11.43;3.07;;;;;;;15.59;100.00;99946.31;3611360;39;20502;-46
2021/08/08 05:15:34;;;;;;;8.03;3.80;;;;;;;15.53;100.00;99949.72;3610382;39;20784;-44
2021/08/08 05:18:02;;;;;;;6.67;3.73;;;;;;;15.55;100.00;99954.06;3611869;39;20494;-43
2021/08/08 05:20:30;;;;;;;6.60;3.40;;;;;;;15.53;100.00;99948.84;3610775;39;20534;-45
2021/08/08 05:22:58;;;;;;;6.23;3.00;;;;;;;15.53;100.00;99956.66;3612064;39;20514;-42
2021/08/08 05:25:26;;;;;;;8.23;3.83;;;;;;;15.61;100.00;99964.53;3604926;39;20502;-48
2021/08/08 05:27:54;;;;;;;11.10;3.73;;;;;;;15.59;100.00;99958.44;3593164;39;20526;-45
2021/08/08 05:30:22;;;;;;;5.00;3.43;;;;;;;15.68;100.00;99955.91;3582786;39;20508;-44
2021/08/08 05:32:50;;;;;;;10.03;2.90;;;;;;;15.64;100.00;99951.56;3612262;39;20511;-49
2021/08/08 05:35:18;;;;;;;6.13;3.10;;;;;;;15.62;100.00;99956.75;3611861;39;20504;-45
2021/08/08 05:37:45;;;;;;;14.20;5.50;;;;;;;15.69;100.00;99956.78;3611046;39;20449;-44
2021/08/08 05:40:15;;;;;;;5.00;3.40;;;;;;;15.75;100.00;99960.28;3590823;39;20516;-45
2021/08/08 05:42:47;;;;;;;7.10;3.40;;;;;;;15.71;100.00;99955.06;3606551;39;20478;-48
2021/08/08 05:45:14;;;;;;;5.50;3.17;;;;;;;15.82;100.00;99952.53;3611999;39;20862;-45
2021/08/08 05:47:42;;;;;;;5.60;3.07;;;;;;;15.82;100.00;99947.34;3583992;39;20475;-50
2021/08/08 05:50:10;;;;;;;4.40;2.73;;;;;;;15.77;100.00;99960.31;3604806;39;20494;-45
2021/08/08 05:52:37;;;;;;;6.20;3.33;;;;;;;15.75;100.00;99957.69;3594585;39;20521;-45
2021/08/08 05:55:06;;;;;;;4.50;2.97;;;;;;;15.79;100.00;99953.38;3611583;39;20558;-45
2021/08/08 05:57:35;;;;;;;5.50;3.43;;;;;;;15.97;100.00;99955.28;3607435;39;20514;-44
2021/08/08 06:00:03;;;;;;;5.70;3.50;;;;;;;15.90;100.00;99953.50;3611810;39;20529;-44
2021/08/08 06:02:30;;;;;;;7.77;3.13;;;;;;;15.86;100.00;99954.31;3601714;39;20493;-45
2021/08/08 06:04:58;;;;;;;7.70;3.33;;;;;;;15.97;100.00;99962.22;3593439;39;20512;-44
2021/08/08 06:07:26;;;;;;;6.17;3.47;;;;;;;15.99;100.00;99957.91;3614033;39;20577;-45
2021/08/08 06:09:53;;;;;;;6.50;3.63;;;;;;;16.01;100.00;99964.84;3611301;39;20532;-45
2021/08/08 06:12:21;;;;;;;6.00;2.47;;;;;;;15.74;100.00;99983.72;3611592;39;20700;-45
2021/08/08 06:14:50;;;;;;;4.97;3.40;;;;;;;15.72;100.00;99978.50;3611827;39;20514;-43
2021/08/08 06:17:18;;;;;;;6.73;3.97;;;;;;;15.73;100.00;99980.22;3582569;39;20486;-44
2021/08/08 06:19:45;;;;;;;7.03;2.90;;;;;;;15.43;100.00;99997.28;3588722;40;20499;-47
2021/08/08 06:22:14;;;;;;;5.83;4.50;;;;;;;15.28;100.00;100008.41;3591287;40;20524;-45
2021/08/08 06:24:41;;;;;;;6.10;3.23;;;;;;;15.05;100.00;100022.03;3589701;40;20838;-46
2021/08/08 06:27:09;;;;;;;5.77;3.83;;;;;;;15.01;100.00;100034.97;3582000;40;20475;-42
2021/08/08 06:29:37;;;;;;;7.40;5.30;;;;;;;15.05;100.00;100052.31;3585009;40;20506;-45
2021/08/08 06:32:07;;;;;;;6.37;4.90;;;;;;;15.04;100.00;100055.75;3587746;40;20604;-48
2021/08/08 06:34:34;;;;;;;7.80;5.40;;;;;;;15.01;100.00;100066.13;3572920;40;20688;-44
2021/08/08 06:37:02;;;;;;;10.53;7.30;;;;;;;15.09;100.00;100073.13;3589184;40;20747;-45
2021/08/08 06:39:30;;;;;;;7.93;6.00;;;;;;;15.09;100.00;100080.94;3588664;40;20559;-44
2021/08/08 06:41:57;;;;;;;7.50;5.60;;;;;;;15.21;100.00;100090.63;3582431;40;20491;-48
2021/08/08 06:44:26;;;;;;;6.23;4.83;;;;;;;15.16;100.00;100092.28;3599921;39;20700;-45
2021/08/08 06:46:53;;;;;;;6.50;4.80;;;;;;;15.21;100.00;100094.94;3603019;39;20472;-46
2021/08/08 06:49:22;;;;;;;9.60;5.53;;;;;;;15.23;100.00;100088.91;3611504;39;20515;-45
2021/08/08 06:51:50;;;;;;;6.63;5.20;;;;;;;15.34;100.00;100098.56;3602716;39;20500;-45
2021/08/08 06:54:17;;;;;;;8.70;5.37;;;;;;;15.29;100.00;100097.63;3600538;39;20532;-47
2021/08/08 06:56:45;;;;;;;7.57;5.77;;;;;;;15.32;100.00;100110.66;3609426;39;20501;-45
2021/08/08 06:59:13;;;;;;;8.17;6.27;;;;;;;15.41;100.00;100102.09;3611592;39;20496;-46
2021/08/08 07:01:40;;;;;;;6.87;5.40;;;;;;;15.26;100.00;100108.84;3603573;39;20494;-44
2021/08/08 07:04:08;;;;;;;11.27;6.17;;;;;;;15.50;100.00;100108.25;3610704;39;20495;-45
2021/08/08 07:06:37;;;;;;;9.90;6.97;;;;;;;15.41;100.00;100110.78;3611197;39;20505;-44
2021/08/08 07:09:07;;;;;;;13.00;6.67;;;;;;;15.39;100.00;100107.28;3584468;39;20812;-45
2021/08/08 07:11:35;;;;;;;9.70;7.30;;;;;;;15.48;100.00;100112.59;3609215;39;20487;-46
2021/08/08 07:14:03;;;;;;;16.20;6.47;;;;;;;15.41;100.00;100108.16;3584562;39;20525;-48
2021/08/08 07:16:31;;;;;;;9.07;7.63;;;;;;;15.42;100.00;100114.25;3607827;39;20804;-44
2021/08/08 07:18:58;;;;;;;11.80;6.90;;;;;;;15.48;100.00;100109.97;3611291;39;20489;-47
2021/08/08 07:21:26;;;;;;;8.93;7.53;;;;;;;15.58;100.00;100110.09;3612434;39;20701;-47
2021/08/08 07:24:11;;;;;;;9.37;6.23;;;;;;;15.55;100.00;100115.25;3610534;39;20599;-47
2021/08/08 07:26:39;;;;;;;8.20;6.73;;;;;;;15.56;100.00;100112.66;3610745;39;20515;-47
2021/08/08 07:29:06;;;;;;;8.53;5.97;;;;;;;15.56;100.00;100104.88;3584713;39;20821;-46
2021/08/08 07:31:51;;;;;;;8.23;6.07;;;;;;;15.66;100.00;100108.44;3593659;39;20504;-45
2021/08/08 07:34:19;;;;;;;8.80;7.43;;;;;;;15.73;100.00;100109.34;3611105;39;20486;-44
2021/08/08 07:36:47;;;;;;;11.23;6.87;;;;;;;15.68;100.00;100104.13;3583935;39;20498;-45
2021/08/08 07:39:16;;;;;;;11.27;6.40;;;;;;;15.67;100.00;100110.19;3584739;39;20475;-45
2021/08/08 07:41:43;;;;;;;7.77;6.17;;;;;;;15.60;100.00;100114.47;3608036;39;20486;-44
2021/08/08 07:44:11;;;;;;;7.90;5.50;;;;;;;15.60;100.00;100123.97;3611584;39;20485;-45
2021/08/08 07:46:39;;;;;;;11.03;6.57;;;;;;;15.60;100.00;100118.78;3612495;39;20499;-45
2021/08/08 07:49:07;;;;;;;7.33;5.80;;;;;;;15.63;100.00;100118.78;3608411;39;20690;-46
2021/08/08 07:51:34;;;;;;;10.00;7.47;;;;;;;15.68;100.00;100124.06;3583821;39;20717;-46
2021/08/08 07:54:02;;;;;;;10.33;7.33;;;;;;;15.83;100.00;100123.34;3610611;39;20499;-48
2021/08/08 07:56:32;;;;;;;11.77;6.80;;;;;;;15.82;100.00;100129.38;3610011;39;20467;-44
2021/08/08 07:58:59;;;;;;;10.47;7.43;;;;;;;15.80;100.00;100132.00;3610796;39;20508;-44
2021/08/08 08:01:27;;;;;;;10.03;6.70;;;;;;;15.70;100.00;100133.63;3603058;39;20490;-43
2021/08/08 08:03:55;;;;;;;13.30;7.57;;;;;;;15.69;100.00;100144.00;3609519;39;20501;-44
2021/08/08 08:06:22;;;;;;;11.50;7.43;;;;;;;15.66;100.00;100150.03;3581893;39;20474;-44
2021/08/08 08:08:50;;;;;;;10.87;7.57;;;;;;;15.59;100.00;100154.28;3611388;39;20510;-47
2021/08/08 08:11:18;;;;;;;11.40;8.70;;;;;;;15.66;100.00;100166.50;3587187;39;20723;-47
2021/08/08 08:13:47;;;;;;;11.23;8.57;;;;;;;15.69;100.00;100160.47;3609119;39;20506;-47
2021/08/08 08:16:17;;;;;;;10.77;7.77;;;;;;;15.60;100.00;100176.88;3608057;39;20491;-45
2021/08/08 08:18:45;;;;;;;13.47;9.50;;;;;;;15.64;100.00;100188.16;3583570;39;20777;-43
2021/08/08 08:21:13;;;;;;;21.87;12.67;;;;;;;15.64;100.00;100191.63;3607910;39;20679;-44
2021/08/08 08:23:40;;;;;;;21.10;10.70;;;;;;;15.70;100.00;100195.16;3610656;39;20487;-45
2021/08/08 08:26:08;;;;;;;14.27;8.80;;;;;;;15.66;100.00;100196.84;3583437;39;20553;-45
2021/08/08 08:28:36;;;;;;;20.17;13.47;;;;;;;15.78;100.00;100201.31;3611059;39;20702;-44
2021/08/08 08:31:05;;;;;;;14.73;10.63;;;;;;;15.69;100.00;100207.28;3603166;39;20560;-45
2021/08/08 08:33:33;;;;;;;59.07;20.40;;;;;;;15.86;100.00;100211.81;3610109;39;20503;-43
2021/08/08 08:36:00;;;;;;;116.27;35.83;;;;;;;16.02;100.00;100216.38;3608619;39;20453;-47
2021/08/08 08:38:28;;;;;;;65.03;20.60;;;;;;;16.02;100.00;100218.09;3583966;40;20826;-47
2021/08/08 08:40:57;;;;;;;39.50;16.90;;;;;;;15.99;100.00;100211.13;3598286;39;20484;-45
2021/08/08 08:43:25;;;;;;;25.60;13.30;;;;;;;16.00;100.00;100217.22;3601818;39;20559;-44
2021/08/08 08:45:53;;;;;;;45.00;13.30;;;;;;;16.01;100.00;100225.00;3604397;39;20498;-47
2021/08/08 08:48:23;;;;;;;23.60;13.40;;;;;;;16.03;100.00;100218.09;3601621;39;20543;-44
2021/08/08 08:50:53;;;;;;;20.40;10.70;;;;;;;15.98;100.00;100227.59;3585066;39;20540;-46
2021/08/08 08:53:21;;;;;;;20.40;12.47;;;;;;;16.11;100.00;100230.31;3585469;39;20811;-49
2021/08/08 08:55:50;;;;;;;26.07;14.10;;;;;;;16.12;100.00;100232.06;3607566;39;20470;-47
2021/08/08 08:58:18;;;;;;;34.57;17.63;;;;;;;16.35;100.00;100236.63;3612327;39;20726;-45
2021/08/08 09:00:47;;;;;;;20.33;14.03;;;;;;;16.38;100.00;100236.66;3608503;39;20526;-45
2021/08/08 09:03:14;;;;;;;18.23;12.77;;;;;;;16.37;100.00;100238.41;3593124;39;20523;-44
2021/08/08 09:05:43;;;;;;;18.77;10.30;;;;;;;16.15;100.00;100238.16;3609593;39;20481;-44
2021/08/08 09:08:11;;;;;;;17.40;11.13;;;;;;;16.35;100.00;100239.25;3611995;39;20500;-45
2021/08/08 09:10:40;;;;;;;18.10;11.47;;;;;;;16.46;100.00;100240.22;3603575;39;20719;-45
2021/08/08 09:13:08;;;;;;;15.47;9.90;;;;;;;16.49;100.00;100242.84;3607925;39;20490;-44
2021/08/08 09:15:37;;;;;;;19.57;13.10;;;;;;;16.80;100.00;100253.53;3599185;39;20492;-44
2021/08/08 09:18:15;;;;;;;12.53;7.40;;;;;;;16.68;100.00;100240.41;3601021;39;20813;-44
2021/08/08 09:20:45;;;;;;;19.00;11.80;;;;;;;16.99;100.00;100223.25;3605171;39;20781;-45
2021/08/08 09:23:13;;;;;;;15.67;9.80;;;;;;;17.10;100.00;100235.53;3611788;39;20565;-45
2021/08/08 09:25:49;;;;;;;22.10;12.17;;;;;;;16.99;100.00;100238.03;3610894;39;20506;-43
2021/08/08 09:28:17;;;;;;;17.50;10.03;;;;;;;17.04;100.00;100240.69;3612359;39;20678;-45
2021/08/08 09:30:44;;;;;;;18.27;12.50;;;;;;;17.05;100.00;100235.50;3610148;39;20528;-44
2021/08/08 09:33:13;;;;;;;20.23;10.40;;;;;;;16.98;100.00;100241.50;3610781;39;20700;-43
2021/08/08 09:35:44;;;;;;;17.33;11.20;;;;;;;16.95;100.00;100236.25;3604770;39;22371;-47
2021/08/08 09:38:13;;;;;;;12.03;8.20;;;;;;;16.76;100.00;100235.25;3611126;39;20512;-46
2021/08/08 09:40:41;;;;;;;15.50;8.30;;;;;;;16.85;100.00;100241.41;3609236;39;20488;-45
2021/08/08 09:43:11;;;;;;;15.43;9.40;;;;;;;16.84;100.00;100238.78;3611869;39;20524;-45
2021/08/08 09:45:40;;;;;;;30.37;9.63;;;;;;;16.73;100.00;100230.91;3607646;39;21468;-45
2021/08/08 09:48:11;;;;;;;15.97;9.53;;;;;;;16.71;100.00;100240.41;3611674;39;20499;-46
2021/08/08 09:50:39;;;;;;;14.03;8.53;;;;;;;16.69;100.00;100244.75;3606448;39;21522;-44
2021/08/08 09:53:10;;;;;;;19.23;8.27;;;;;;;16.73;100.00;100249.97;3611700;39;20543;-49
2021/08/08 09:55:38;;;;;;;19.13;9.10;;;;;;;16.84;100.00;100250.09;3606720;39;20515;-44
2021/08/08 09:58:07;;;;;;;14.30;9.90;;;;;;;16.94;100.00;100257.97;3584779;39;20532;-44
2021/08/08 10:00:36;;;;;;;26.37;10.17;;;;;;;16.81;100.00;100251.81;3589960;39;20505;-44
2021/08/08 10:03:05;;;;;;;17.87;9.33;;;;;;;16.97;100.00;100256.25;3611189;39;20466;-46
2021/08/08 10:05:34;;;;;;;27.97;10.73;;;;;;;16.79;100.00;100267.41;3607035;39;20524;-42
2021/08/08 10:08:08;;;;;;;17.67;11.70;;;;;;;16.86;100.00;100269.19;3611463;39;20562;-46
2021/08/08 10:10:37;;;;;;;22.33;10.63;;;;;;;16.82;100.00;100262.22;3599890;39;20511;-48
2021/08/08 10:13:28;;;;;;;19.23;9.77;;;;;;;16.78;100.00;100268.28;3610877;39;20493;-45
2021/08/08 10:15:59;;;;;;;22.20;10.77;;;;;;;16.85;100.00;100269.19;3603547;39;20480;-43
2021/08/08 10:18:30;;;;;;;37.37;12.60;;;;;;;16.94;100.00;100278.81;3611160;39;20920;-46
2021/08/08 10:20:58;;;;;;;20.80;9.50;;;;;;;17.05;100.00;100279.81;3603680;39;20467;-45
2021/08/08 10:23:30;;;;;;;23.20;12.93;;;;;;;17.16;100.00;100265.97;3607524;39;20528;-46
2021/08/08 10:25:58;;;;;;;27.73;12.23;;;;;;;16.99;100.00;100264.09;3605915;39;20473;-47
2021/08/08 10:28:26;;;;;;;21.83;10.37;;;;;;;17.01;100.00;100262.34;3611324;39;20539;-45
2021/08/08 10:30:54;;;;;;;54.77;31.47;;;;;;;17.12;100.00;100276.38;3604949;39;20489;-45
2021/08/08 10:33:22;;;;;;;16.63;9.53;;;;;;;16.87;100.00;100265.72;3584769;39;20534;-44
2021/08/08 10:35:51;;;;;;;20.50;11.03;;;;;;;16.99;100.00;100277.97;3599857;39;20513;-45
2021/08/08 10:38:19;;;;;;;18.60;10.40;;;;;;;16.92;100.00;100270.13;3611414;39;20851;-45
2021/08/08 10:40:48;;;;;;;21.87;10.23;;;;;;;16.83;100.00;100278.72;3591477;39;20501;-45
2021/08/08 10:43:23;;;;;;;18.50;10.23;;;;;;;16.79;100.00;100283.03;3610634;39;20541;-45
2021/08/08 10:45:50;;;;;;;24.97;10.77;;;;;;;16.84;100.00;100281.34;3610377;39;20464;-46
2021/08/08 10:48:18;;;;;;;19.37;11.00;;;;;;;16.97;100.00;100281.44;3611302;39;20500;-48
2021/08/08 10:50:48;;;;;;;22.23;10.90;;;;;;;17.26;100.00;100278.19;3609369;39;20458;-43
2021/08/08 10:53:22;;;;;;;20.00;10.33;;;;;;;17.54;100.00;100270.56;3611320;39;20553;-45
2021/08/08 10:56:05;;;;;;;17.37;9.17;;;;;;;17.59;100.00;100271.41;3610336;39;20508;-44
2021/08/08 10:58:34;;;;;;;15.50;9.17;;;;;;;17.82;100.00;100281.09;3609784;39;20494;-46
2021/08/08 11:01:02;;;;;;;22.43;9.87;;;;;;;17.79;100.00;100279.34;3584349;39;20500;-43
2021/08/08 11:03:30;;;;;;;13.80;8.60;;;;;;;17.81;100.00;100275.00;3611221;39;20508;-44
2021/08/08 11:05:58;;;;;;;16.23;9.03;;;;;;;17.84;100.00;100271.53;3606669;39;20469;-43
2021/08/08 11:08:25;;;;;;;13.37;9.53;;;;;;;17.93;100.00;100265.47;3611637;39;20497;-44
2021/08/08 11:10:54;;;;;;;13.60;8.13;;;;;;;17.87;100.00;100255.91;3581064;39;20733;-45
2021/08/08 11:13:24;;;;;;;15.93;9.40;;;;;;;17.94;100.00;100268.09;3611075;39;20583;-46
2021/08/08 11:15:52;;;;;;;14.90;9.00;;;;;;;18.01;100.00;100268.13;3600447;39;20494;-44
2021/08/08 11:18:29;;;;;;;15.47;8.83;;;;;;;17.90;100.00;100271.56;3608490;39;20716;-45
2021/08/08 11:20:57;;;;;;;15.00;7.30;;;;;;;17.90;100.00;100270.72;3609896;39;20548;-44
2021/08/08 11:23:29;;;;;;;14.77;7.70;;;;;;;17.95;100.00;100269.84;3606009;39;20507;-47